createdAt,value
2022-08-16T00:00:20.386Z,18.65
2022-08-16T00:02:51.947Z,17.73
2022-08-16T00:05:20.354Z,18.50
2022-08-16T00:07:47.434Z,19.90
2022-08-16T00:10:21.147Z,15.98
2022-08-16T00:12:49.964Z,17.05
2022-08-16T00:15:23.118Z,18.50
2022-08-16T00:17:57.020Z,18.42
2022-08-16T00:20:25.150Z,20.15
2022-08-16T00:22:52.711Z,20.20
2022-08-16T00:25:21.861Z,17.77
2022-08-16T00:28:09.192Z,18.50
2022-08-16T00:30:38.805Z,17.85
2022-08-16T00:33:06.964Z,16.52
2022-08-16T00:35:37.008Z,16.85
2022-08-16T00:38:41.514Z,15.65
2022-08-16T00:40:54.325Z,17.35
2022-08-16T00:43:43.228Z,16.60
2022-08-16T00:46:33.224Z,15.80
2022-08-16T00:49:05.358Z,16.38
2022-08-16T00:51:32.493Z,15.55
2022-08-16T00:54:01.244Z,13.88
2022-08-16T00:56:57.657Z,15.45
2022-08-16T00:59:23.779Z,15.30
2022-08-16T01:01:51.492Z,15.25
2022-08-16T01:04:29.013Z,14.30
2022-08-16T01:07:01.834Z,14.55
2022-08-16T01:09:33.260Z,14.82
2022-08-16T01:12:04.086Z,14.57
2022-08-16T01:14:43.436Z,14.90
2022-08-16T01:17:13.009Z,14.30
2022-08-16T01:19:44.392Z,13.98
2022-08-16T01:22:52.533Z,13.85
2022-08-16T01:25:33.993Z,13.88
2022-08-16T01:28:07.182Z,14.30
2022-08-16T01:30:39.806Z,13.52
2022-08-16T01:33:17.510Z,14.98
2022-08-16T01:35:56.686Z,12.95
2022-08-16T01:38:31.920Z,14.65
2022-08-16T01:43:31.985Z,14.60
2022-08-16T01:46:29.943Z,13.75
2022-08-16T01:48:48.851Z,14.90
2022-08-16T01:51:18.476Z,14.45
2022-08-16T01:53:55.480Z,15.07
2022-08-16T01:56:25.227Z,14.23
2022-08-16T01:58:54.751Z,13.50
2022-08-16T02:01:22.520Z,14.75
2022-08-16T02:03:51.804Z,14.20
2022-08-16T02:06:33.887Z,15.45
2022-08-16T02:09:05.424Z,13.55
2022-08-16T02:11:47.379Z,13.40
2022-08-16T02:14:18.287Z,13.65
2022-08-16T02:16:49.190Z,15.45
2022-08-16T02:19:19.921Z,12.98
2022-08-16T02:22:08.375Z,13.63
2022-08-16T02:24:42.206Z,15.32
2022-08-16T02:27:10.378Z,15.35
2022-08-16T02:29:38.375Z,12.18
2022-08-16T02:32:50.422Z,14.32
2022-08-16T02:35:01.127Z,14.68
2022-08-16T02:37:39.756Z,14.13
2022-08-16T02:40:16.975Z,14.25
2022-08-16T02:42:50.007Z,14.68
2022-08-16T02:45:20.240Z,14.30
2022-08-16T02:48:01.855Z,14.52
2022-08-16T02:50:54.330Z,14.75
2022-08-16T02:53:27.025Z,14.75
2022-08-16T02:55:54.440Z,14.48
2022-08-16T02:58:24.807Z,14.32
2022-08-16T03:00:56.166Z,14.57
2022-08-16T03:03:25.975Z,15.27
2022-08-16T03:05:53.617Z,13.60
2022-08-16T03:08:31.126Z,14.23
2022-08-16T03:11:16.829Z,14.38
2022-08-16T03:13:53.156Z,13.63
2022-08-16T03:16:37.621Z,14.57
2022-08-16T03:19:06.768Z,15.10
2022-08-16T03:21:37.841Z,13.75
2022-08-16T03:24:28.569Z,13.18
2022-08-16T03:26:58.114Z,13.02
2022-08-16T03:29:31.989Z,13.75
2022-08-16T03:32:01.222Z,13.80
2022-08-16T03:34:29.617Z,14.43
2022-08-16T03:36:57.381Z,16.08
2022-08-16T03:39:25.061Z,14.55
2022-08-16T03:41:59.279Z,15.73
2022-08-16T03:44:44.293Z,13.88
2022-08-16T03:47:19.803Z,15.00
2022-08-16T03:49:51.806Z,14.82
2022-08-16T03:52:20.710Z,15.80
2022-08-16T03:54:57.440Z,14.57
2022-08-16T03:57:31.666Z,15.55
2022-08-16T04:00:20.786Z,16.35
2022-08-16T04:03:08.551Z,13.85
2022-08-16T04:05:38.899Z,15.40
2022-08-16T04:08:23.198Z,16.63
2022-08-16T04:10:52.862Z,16.05
2022-08-16T04:14:00.745Z,15.98
2022-08-16T04:16:08.377Z,17.08
2022-08-16T04:18:38.756Z,16.33
2022-08-16T04:21:06.088Z,16.13
2022-08-16T04:23:33.337Z,13.85
2022-08-16T04:26:02.124Z,15.23
2022-08-16T04:28:55.833Z,16.40
2022-08-16T04:31:16.802Z,15.63
2022-08-16T04:33:51.157Z,15.50
2022-08-16T04:36:20.196Z,16.92
2022-08-16T04:38:50.080Z,15.65
2022-08-16T04:41:19.497Z,15.48
2022-08-16T04:44:00.612Z,14.55
2022-08-16T04:47:01.219Z,14.45
2022-08-16T04:49:14.762Z,14.27
2022-08-16T04:51:41.840Z,16.90
2022-08-16T04:54:10.157Z,15.32
2022-08-16T04:56:42.902Z,14.60
2022-08-16T04:59:13.548Z,15.43
2022-08-16T05:01:58.087Z,16.85
2022-08-16T05:04:26.118Z,16.92
2022-08-16T05:06:57.445Z,16.40
2022-08-16T05:09:24.672Z,16.55
2022-08-16T05:11:51.784Z,15.50
2022-08-16T05:14:20.268Z,18.55
2022-08-16T05:17:06.068Z,17.02
2022-08-16T05:19:36.684Z,16.50
2022-08-16T05:22:04.082Z,15.25
2022-08-16T05:24:31.994Z,17.45
2022-08-16T05:26:59.129Z,16.50
2022-08-16T05:30:00.153Z,17.50
2022-08-16T05:32:32.512Z,17.73
2022-08-16T05:35:01.906Z,16.70
2022-08-16T05:37:29.462Z,17.30
2022-08-16T05:40:08.213Z,17.90
2022-08-16T05:42:36.131Z,16.35
2022-08-16T05:45:06.938Z,16.17
2022-08-16T05:47:34.314Z,17.38
2022-08-16T05:50:19.361Z,16.52
2022-08-16T05:52:46.696Z,18.92
2022-08-16T05:55:13.995Z,17.00
2022-08-16T05:57:41.933Z,18.52
2022-08-16T06:00:11.780Z,17.90
2022-08-16T06:02:39.056Z,17.60
2022-08-16T06:05:06.944Z,16.52
2022-08-16T06:07:38.442Z,16.73
2022-08-16T06:10:07.489Z,14.60
2022-08-16T06:12:37.418Z,16.52
2022-08-16T06:15:09.918Z,15.18
2022-08-16T06:17:43.290Z,13.45
2022-08-16T06:20:24.059Z,15.52
2022-08-16T06:22:58.513Z,14.88
2022-08-16T06:25:35.975Z,13.65
2022-08-16T06:28:08.839Z,13.35
2022-08-16T06:30:43.426Z,14.93
2022-08-16T06:33:22.185Z,13.18
2022-08-16T06:35:57.725Z,13.45
2022-08-16T06:38:33.483Z,14.90
2022-08-16T06:41:06.874Z,13.90
2022-08-16T06:43:41.697Z,14.15
2022-08-16T06:46:20.750Z,13.80
2022-08-16T06:48:51.523Z,14.40
2022-08-16T06:51:19.006Z,15.18
2022-08-16T06:53:46.238Z,16.20
2022-08-16T06:56:23.374Z,13.30
2022-08-16T06:58:52.735Z,15.35
2022-08-16T07:01:42.856Z,14.07
2022-08-16T07:04:10.454Z,15.00
2022-08-16T07:06:43.156Z,14.80
2022-08-16T07:09:12.317Z,13.50
2022-08-16T07:11:45.592Z,16.65
2022-08-16T07:14:24.584Z,15.40
2022-08-16T07:16:58.227Z,12.82
2022-08-16T07:20:01.641Z,14.27
2022-08-16T07:22:37.378Z,15.52
2022-08-16T07:25:01.236Z,14.70
2022-08-16T07:27:28.820Z,15.07
2022-08-16T07:29:59.231Z,12.63
2022-08-16T07:32:29.694Z,14.23
2022-08-16T07:34:58.732Z,14.07
2022-08-16T07:37:25.840Z,14.20
2022-08-16T07:39:54.640Z,14.95
2022-08-16T07:42:28.272Z,13.35
2022-08-16T07:45:07.517Z,14.55
2022-08-16T07:47:37.391Z,14.68
2022-08-16T07:50:07.810Z,13.80
2022-08-16T07:52:35.208Z,13.82
2022-08-16T07:55:07.052Z,13.70
2022-08-16T07:57:38.072Z,15.27
2022-08-16T08:00:21.243Z,13.70
2022-08-16T08:02:55.448Z,13.35
2022-08-16T08:05:25.598Z,11.50
2022-08-16T08:08:03.219Z,13.18
2022-08-16T08:10:39.307Z,11.90
2022-08-16T08:13:06.399Z,12.07
2022-08-16T08:15:37.155Z,10.82
2022-08-16T08:18:29.999Z,11.13
2022-08-16T08:20:59.146Z,11.95
2022-08-16T08:23:27.585Z,11.45
2022-08-16T08:25:55.849Z,11.18
2022-08-16T08:28:23.140Z,11.90
2022-08-16T08:31:01.143Z,11.98
2022-08-16T08:33:29.368Z,10.45
2022-08-16T08:36:01.428Z,12.07
2022-08-16T08:38:45.580Z,14.20
2022-08-16T08:41:15.169Z,12.60
2022-08-16T08:43:42.997Z,12.20
2022-08-16T08:46:17.873Z,10.00
2022-08-16T08:48:59.397Z,13.63
2022-08-16T08:51:35.867Z,12.95
2022-08-16T08:54:09.468Z,12.43
2022-08-16T08:56:37.698Z,14.00
2022-08-16T08:59:20.523Z,10.35
2022-08-16T09:01:58.094Z,10.30
2022-08-16T09:04:27.173Z,11.00
2022-08-16T09:06:54.911Z,10.35
2022-08-16T09:09:22.835Z,11.07
2022-08-16T09:11:53.357Z,9.50
2022-08-16T09:14:32.110Z,9.48
2022-08-16T09:17:03.059Z,10.40
2022-08-16T09:19:40.878Z,9.50
2022-08-16T09:22:19.863Z,8.68
2022-08-16T09:24:52.363Z,9.32
2022-08-16T09:27:23.565Z,9.13
2022-08-16T09:30:00.152Z,10.15
2022-08-16T09:32:31.176Z,10.07
2022-08-16T09:34:59.804Z,11.13
2022-08-16T09:37:36.353Z,9.32
2022-08-16T09:40:33.094Z,9.35
2022-08-16T09:42:56.348Z,10.57
2022-08-16T09:45:28.894Z,10.43
2022-08-16T09:47:58.353Z,11.32
2022-08-16T09:50:36.914Z,10.65
2022-08-16T09:53:08.741Z,10.20
2022-08-16T09:55:44.927Z,9.90
2022-08-16T09:58:40.673Z,10.13
2022-08-16T10:01:03.522Z,8.85
2022-08-16T10:03:32.120Z,9.95
2022-08-16T10:05:59.243Z,9.38
2022-08-16T10:08:27.448Z,9.57
2022-08-16T10:11:30.402Z,9.27
2022-08-16T10:13:57.487Z,8.80
2022-08-16T10:16:25.127Z,9.43
2022-08-16T10:19:02.390Z,8.80
2022-08-16T10:21:33.954Z,8.23
2022-08-16T10:24:02.125Z,8.68
2022-08-16T10:27:19.946Z,9.02
2022-08-16T10:29:20.025Z,8.38
2022-08-16T10:31:53.090Z,6.88
2022-08-16T10:34:31.923Z,7.03
2022-08-16T10:37:00.820Z,7.10
2022-08-16T10:39:40.573Z,8.18
2022-08-16T10:42:08.750Z,7.93
2022-08-16T10:44:35.898Z,7.03
2022-08-16T10:47:03.764Z,7.82
2022-08-16T10:49:32.190Z,7.70
2022-08-16T10:52:02.736Z,6.88
2022-08-16T10:55:37.276Z,6.50
2022-08-16T10:57:32.847Z,6.55
2022-08-16T11:00:01.311Z,6.18
2022-08-16T11:02:58.817Z,6.63
2022-08-16T11:05:16.966Z,6.07
2022-08-16T11:07:52.324Z,5.75
2022-08-16T11:16:26.361Z,7.78
2022-08-16T11:19:05.328Z,7.25
2022-08-16T11:22:22.933Z,6.90
2022-08-16T11:24:42.903Z,6.95
2022-08-16T11:27:22.920Z,6.65
2022-08-16T11:29:53.527Z,6.82
2022-08-16T11:32:31.196Z,6.47
2022-08-16T11:35:10.273Z,6.90
2022-08-16T11:40:32.741Z,7.00
2022-08-16T11:43:01.489Z,7.63
2022-08-16T11:45:33.953Z,7.80
2022-08-16T11:48:05.571Z,6.47
2022-08-16T11:50:33.659Z,6.40
2022-08-16T11:53:02.390Z,6.57
2022-08-16T11:55:32.435Z,6.65
2022-08-16T11:58:00.547Z,6.65
2022-08-16T12:00:33.775Z,6.07
2022-08-16T12:03:16.982Z,6.47
2022-08-16T12:05:46.002Z,7.18
2022-08-16T12:08:13.147Z,5.90
2022-08-16T12:10:46.951Z,5.97
2022-08-16T12:13:14.710Z,6.35
2022-08-16T12:15:42.496Z,6.10
2022-08-16T12:18:11.146Z,6.47
2022-08-16T12:20:47.870Z,6.55
2022-08-16T12:23:17.353Z,6.78
2022-08-16T12:25:44.762Z,5.63
2022-08-16T12:28:12.623Z,5.90
2022-08-16T12:33:25.222Z,5.25
2022-08-16T12:35:53.133Z,5.82
2022-08-16T12:38:40.876Z,5.80
2022-08-16T12:41:08.123Z,5.75
2022-08-16T12:43:36.352Z,5.30
2022-08-16T12:46:09.503Z,6.10
2022-08-16T12:48:55.827Z,5.05
2022-08-16T12:51:31.286Z,5.28
2022-08-16T12:54:16.061Z,4.95
2022-08-16T12:56:43.276Z,4.95
2022-08-16T12:59:13.208Z,5.22
2022-08-16T13:01:47.663Z,4.68
2022-08-16T13:04:20.650Z,4.90
2022-08-16T13:06:52.128Z,5.00
2022-08-16T13:09:24.059Z,5.22
2022-08-16T13:12:00.486Z,5.40
2022-08-16T13:14:33.511Z,5.37
2022-08-16T13:17:06.479Z,4.93
2022-08-16T13:20:05.462Z,5.47
2022-08-16T13:22:23.566Z,5.85
2022-08-16T13:24:53.256Z,5.25
2022-08-16T13:27:20.716Z,4.80
2022-08-16T13:30:01.923Z,4.82
2022-08-16T13:32:39.483Z,4.90
2022-08-16T13:35:08.143Z,5.75
2022-08-16T13:37:41.275Z,5.50
2022-08-16T13:40:09.979Z,5.38
2022-08-16T13:42:49.560Z,5.10
2022-08-16T13:45:16.930Z,5.60
2022-08-16T13:47:44.104Z,5.53
2022-08-16T13:50:11.927Z,4.60
2022-08-16T13:52:40.385Z,5.07
2022-08-16T13:55:17.787Z,4.15
2022-08-16T13:58:34.289Z,4.88
2022-08-16T14:00:32.508Z,5.10
2022-08-16T14:02:59.741Z,5.30
2022-08-16T14:05:27.296Z,5.22
2022-08-16T14:07:54.480Z,5.45
2022-08-16T14:10:21.607Z,5.43
2022-08-16T14:12:48.718Z,4.75
2022-08-16T14:15:16.329Z,4.70
2022-08-16T14:18:14.847Z,4.95
2022-08-16T14:20:30.986Z,5.07
2022-08-16T14:22:58.886Z,5.57
2022-08-16T14:25:27.021Z,6.07
2022-08-16T14:27:54.787Z,5.88
2022-08-16T14:30:23.235Z,5.55
2022-08-16T14:32:51.317Z,4.90
2022-08-16T14:35:36.389Z,5.78
2022-08-16T14:38:13.464Z,5.20
2022-08-16T14:40:52.507Z,4.88
2022-08-16T14:43:22.014Z,4.80
2022-08-16T14:45:50.642Z,4.18
2022-08-16T14:48:25.065Z,4.03
2022-08-16T14:50:53.853Z,4.38
2022-08-16T14:53:21.028Z,4.35
2022-08-16T14:55:48.533Z,4.70
2022-08-16T14:58:19.633Z,4.72
2022-08-16T15:00:50.167Z,5.00
2022-08-16T15:03:19.212Z,5.13
2022-08-16T15:05:48.618Z,5.63
2022-08-16T15:08:17.122Z,5.95
2022-08-16T15:10:47.532Z,5.45
2022-08-16T15:13:14.950Z,6.22
2022-08-16T15:15:43.419Z,7.38
2022-08-16T15:18:12.063Z,9.30
2022-08-16T15:20:41.107Z,11.70
2022-08-16T15:23:10.042Z,12.10
2022-08-16T15:25:44.238Z,11.02
2022-08-16T15:28:31.121Z,11.95
2022-08-16T15:31:03.317Z,13.50
2022-08-16T15:33:33.834Z,13.65
2022-08-16T15:36:03.763Z,16.10
2022-08-16T15:39:03.894Z,14.07
2022-08-16T15:41:42.582Z,13.48
2022-08-16T15:44:15.410Z,14.82
2022-08-16T15:46:55.228Z,14.10
2022-08-16T15:49:34.669Z,13.73
2022-08-16T15:52:07.562Z,15.45
2022-08-16T15:54:52.469Z,15.13
2022-08-16T15:57:23.021Z,12.13
2022-08-16T15:59:52.445Z,14.57
2022-08-16T16:02:29.695Z,15.50
2022-08-16T16:05:01.067Z,13.73
2022-08-16T16:07:30.781Z,12.68
2022-08-16T16:09:59.619Z,14.77
2022-08-16T16:12:51.344Z,14.15
2022-08-16T16:15:18.294Z,11.23
2022-08-16T16:17:51.313Z,10.63
2022-08-16T16:20:22.189Z,10.07
2022-08-16T16:22:52.102Z,10.70
2022-08-16T16:25:19.339Z,11.50
2022-08-16T16:27:55.873Z,11.05
2022-08-16T16:30:37.813Z,9.07
2022-08-16T16:33:20.591Z,8.07
2022-08-16T16:35:55.315Z,6.57
2022-08-16T16:38:28.646Z,5.45
2022-08-16T16:40:56.992Z,5.00
2022-08-16T16:43:25.490Z,5.00
2022-08-16T16:45:53.338Z,5.20
2022-08-16T16:48:21.812Z,4.30
2022-08-16T16:50:57.996Z,4.00
2022-08-16T16:53:26.082Z,3.63
2022-08-16T16:58:54.169Z,4.40
2022-08-16T17:01:21.422Z,3.92
2022-08-16T17:04:13.326Z,4.07
2022-08-16T17:09:20.926Z,3.85
2022-08-16T17:11:54.861Z,4.20
2022-08-16T17:14:33.415Z,3.95
2022-08-16T17:17:08.861Z,3.75
2022-08-16T17:19:40.784Z,4.07
2022-08-16T17:22:13.815Z,4.18
2022-08-16T17:24:45.248Z,4.28
2022-08-16T17:27:19.299Z,4.28
2022-08-16T17:30:29.533Z,4.13
2022-08-16T17:33:11.282Z,3.95
2022-08-16T17:35:55.604Z,4.20
2022-08-16T17:38:38.810Z,4.22
2022-08-16T17:41:12.186Z,3.60
2022-08-16T17:43:44.466Z,4.38
2022-08-16T17:46:41.137Z,3.95
2022-08-16T17:49:00.446Z,3.95
2022-08-16T17:51:28.393Z,4.70
2022-08-16T17:53:56.475Z,4.00
2022-08-16T17:56:23.571Z,3.88
2022-08-16T17:58:50.686Z,4.53
2022-08-16T18:01:20.211Z,3.88
2022-08-16T18:04:06.371Z,4.47
2022-08-16T18:06:34.368Z,3.58
2022-08-16T18:09:03.391Z,4.53
2022-08-16T18:11:33.771Z,4.43
2022-08-16T18:14:01.082Z,4.93
2022-08-16T18:16:28.255Z,3.97
2022-08-16T18:18:55.334Z,4.10
2022-08-16T18:21:41.747Z,4.32
2022-08-16T18:24:10.995Z,4.32
2022-08-16T18:26:38.791Z,3.88
2022-08-16T18:29:06.531Z,4.10
2022-08-16T18:31:34.386Z,4.28
2022-08-16T18:34:01.573Z,4.43
2022-08-16T18:36:28.810Z,4.47
2022-08-16T18:38:55.913Z,5.00
2022-08-16T18:41:24.737Z,4.63
2022-08-16T18:44:23.570Z,4.95
2022-08-16T18:46:43.638Z,5.25
2022-08-16T18:49:13.124Z,4.47
2022-08-16T18:51:43.339Z,139.77
2022-08-16T18:54:11.483Z,134.45
2022-08-16T18:56:56.156Z,123.80
2022-08-16T18:59:26.086Z,51.08
2022-08-16T19:01:53.248Z,21.20
2022-08-16T19:04:54.812Z,7.53
2022-08-16T19:07:14.585Z,5.05
2022-08-16T19:09:41.866Z,8.88
2022-08-16T19:12:09.178Z,7.38
2022-08-16T19:14:36.284Z,10.60
2022-08-16T19:17:03.962Z,8.32
2022-08-16T19:19:31.116Z,7.60
2022-08-16T19:21:58.293Z,7.28
2022-08-16T19:24:29.213Z,7.53
2022-08-16T19:26:57.186Z,5.97
2022-08-16T19:29:24.621Z,9.27
2022-08-16T19:31:51.804Z,12.13
2022-08-16T19:34:18.866Z,17.92
2022-08-16T19:36:45.969Z,19.48
2022-08-16T19:39:15.156Z,12.40
2022-08-16T19:41:45.458Z,10.20
2022-08-16T19:44:13.143Z,8.90
2022-08-16T19:46:44.699Z,8.63
2022-08-16T19:49:15.842Z,7.93
2022-08-16T19:51:45.253Z,8.25
2022-08-16T19:54:12.313Z,7.07
2022-08-16T19:56:39.400Z,8.10
2022-08-16T19:59:39.618Z,8.02
2022-08-16T20:01:53.557Z,13.00
2022-08-16T20:04:22.033Z,18.38
2022-08-16T20:06:49.837Z,12.10
2022-08-16T20:09:17.158Z,9.98
2022-08-16T20:11:48.352Z,9.90
2022-08-16T20:14:24.651Z,8.20
2022-08-16T20:16:57.196Z,7.97
2022-08-16T20:19:27.092Z,9.38
2022-08-16T20:21:56.187Z,8.98
2022-08-16T20:24:34.177Z,9.73
2022-08-16T20:27:03.713Z,11.90
2022-08-16T20:29:31.030Z,11.57
2022-08-16T20:31:58.236Z,11.15
2022-08-16T20:34:25.376Z,12.10
2022-08-16T20:36:52.431Z,9.75
2022-08-16T20:39:19.872Z,10.95
2022-08-16T20:41:46.994Z,11.07
2022-08-16T20:44:14.164Z,10.88
2022-08-16T20:46:41.381Z,15.77
2022-08-16T20:49:10.129Z,17.98
2022-08-16T20:51:49.046Z,14.50
2022-08-16T20:54:17.115Z,14.35
2022-08-16T20:56:44.214Z,13.85
2022-08-16T20:59:11.277Z,14.68
2022-08-16T21:01:46.184Z,13.20
2022-08-16T21:04:14.331Z,11.40
2022-08-16T21:06:41.482Z,11.88
2022-08-16T21:09:20.412Z,12.88
2022-08-16T21:11:53.148Z,12.82
2022-08-16T21:14:20.347Z,11.88
2022-08-16T21:16:47.424Z,12.88
2022-08-16T21:19:14.841Z,12.25
2022-08-16T21:21:41.956Z,12.20
2022-08-16T21:24:09.060Z,12.02
2022-08-16T21:26:38.898Z,12.15
2022-08-16T21:29:07.802Z,12.70
2022-08-16T21:31:40.017Z,12.52
2022-08-16T21:34:08.043Z,12.88
2022-08-16T21:36:36.536Z,15.15
2022-08-16T21:39:06.037Z,14.35
2022-08-16T21:41:34.365Z,13.82
2022-08-16T21:44:01.571Z,12.90
2022-08-16T21:46:28.710Z,13.63
2022-08-16T21:48:55.808Z,12.95
2022-08-16T21:51:23.385Z,12.55
2022-08-16T21:53:50.468Z,13.43
2022-08-16T21:56:17.672Z,12.95
2022-08-16T21:58:46.264Z,14.60
2022-08-16T22:01:13.386Z,13.13
2022-08-16T22:03:40.521Z,13.55
2022-08-16T22:06:12.723Z,15.25
2022-08-16T22:08:48.756Z,15.82
2022-08-16T22:11:19.653Z,14.45
2022-08-16T22:13:51.476Z,15.10
2022-08-16T22:16:33.484Z,14.95
2022-08-16T22:21:28.399Z,16.02
2022-08-16T22:23:57.542Z,15.43
2022-08-16T22:26:40.892Z,15.73
2022-08-16T22:29:12.783Z,17.37
2022-08-16T22:31:40.670Z,16.05
2022-08-16T22:34:08.862Z,16.05
2022-08-16T22:36:36.153Z,14.77
2022-08-16T22:39:06.237Z,16.63
2022-08-16T22:41:34.918Z,15.48
2022-08-16T22:44:03.544Z,16.17
2022-08-16T22:46:31.020Z,15.02
2022-08-16T22:48:58.215Z,14.30
2022-08-16T22:51:28.062Z,13.90
2022-08-16T22:53:56.111Z,15.23
2022-08-16T22:56:23.844Z,14.90
2022-08-16T22:58:51.016Z,14.43
2022-08-16T23:01:19.550Z,13.65
2022-08-16T23:03:46.740Z,13.63
2022-08-16T23:06:14.187Z,13.60
2022-08-16T23:08:42.060Z,13.70
2022-08-16T23:11:12.025Z,13.73
2022-08-16T23:13:49.849Z,14.40
2022-08-16T23:16:38.820Z,13.23
2022-08-16T23:19:08.480Z,12.70
2022-08-16T23:21:37.113Z,13.43
2022-08-16T23:24:05.788Z,12.63
2022-08-16T23:26:45.141Z,12.93
2022-08-16T23:29:23.607Z,13.80
2022-08-16T23:31:55.308Z,13.68
2022-08-16T23:34:22.714Z,13.80
2022-08-16T23:36:50.135Z,12.20
2022-08-16T23:39:17.247Z,12.05
2022-08-16T23:41:44.449Z,12.55
2022-08-16T23:44:55.334Z,11.75
2022-08-16T23:46:58.922Z,11.57
2022-08-16T23:49:58.988Z,11.68
2022-08-16T23:52:13.186Z,11.45
2022-08-16T23:54:40.294Z,12.52
2022-08-16T23:57:08.343Z,11.57
2022-08-16T23:59:41.101Z,11.82
